sensor_id;sensor_type;location;lat;lon;timestamp;P1;durP1;ratioP1;P2;durP2;ratioP2
65172;SDS011;69059;52.218;5.172;2023-05-10T00:00:14;49.50;;;28.35;;
65172;SDS011;69059;52.218;5.172;2023-05-10T00:02:42;42.87;;;25.67;;
65172;SDS011;69059;52.218;5.172;2023-05-10T00:05:12;49.83;;;27.95;;
65172;SDS011;69059;52.218;5.172;2023-05-10T00:07:39;55.10;;;28.37;;
65172;SDS011;69059;52.218;5.172;2023-05-10T00:10:11;50.30;;;27.17;;
65172;SDS011;69059;52.218;5.172;2023-05-10T00:15:07;48.63;;;26.03;;
65172;SDS011;69059;52.218;5.172;2023-05-10T00:17:36;53.87;;;27.93;;
65172;SDS011;69059;52.218;5.172;2023-05-10T00:20:04;52.00;;;27.50;;
65172;SDS011;69059;52.218;5.172;2023-05-10T00:22:34;44.63;;;25.53;;
65172;SDS011;69059;52.218;5.172;2023-05-10T00:25:01;43.03;;;25.23;;
65172;SDS011;69059;52.218;5.172;2023-05-10T00:27:29;44.58;;;26.15;;
65172;SDS011;69059;52.218;5.172;2023-05-10T00:29:57;58.60;;;29.57;;
65172;SDS011;69059;52.218;5.172;2023-05-10T00:32:25;46.75;;;27.45;;
65172;SDS011;69059;52.218;5.172;2023-05-10T00:34:53;49.92;;;27.55;;
65172;SDS011;69059;52.218;5.172;2023-05-10T00:37:21;66.57;;;31.42;;
65172;SDS011;69059;52.218;5.172;2023-05-10T00:39:50;63.78;;;30.70;;
65172;SDS011;69059;52.218;5.172;2023-05-10T00:42:17;71.70;;;32.60;;
65172;SDS011;69059;52.218;5.172;2023-05-10T00:44:45;47.90;;;27.00;;
65172;SDS011;69059;52.218;5.172;2023-05-10T00:47:13;55.20;;;28.85;;
65172;SDS011;69059;52.218;5.172;2023-05-10T00:49:41;78.88;;;34.60;;
65172;SDS011;69059;52.218;5.172;2023-05-10T00:52:10;77.93;;;34.17;;
65172;SDS011;69059;52.218;5.172;2023-05-10T00:54:37;61.90;;;30.33;;
65172;SDS011;69059;52.218;5.172;2023-05-10T00:57:07;58.80;;;29.88;;
65172;SDS011;69059;52.218;5.172;2023-05-10T00:59:35;82.67;;;33.97;;
65172;SDS011;69059;52.218;5.172;2023-05-10T01:02:03;72.40;;;31.58;;
65172;SDS011;69059;52.218;5.172;2023-05-10T01:04:31;82.10;;;34.35;;
65172;SDS011;69059;52.218;5.172;2023-05-10T01:06:58;57.53;;;29.77;;
65172;SDS011;69059;52.218;5.172;2023-05-10T01:09:27;78.30;;;34.33;;
65172;SDS011;69059;52.218;5.172;2023-05-10T01:11:55;83.38;;;34.70;;
65172;SDS011;69059;52.218;5.172;2023-05-10T01:14:25;71.87;;;35.47;;
65172;SDS011;69059;52.218;5.172;2023-05-10T01:16:53;82.03;;;36.87;;
65172;SDS011;69059;52.218;5.172;2023-05-10T01:19:22;90.28;;;40.03;;
65172;SDS011;69059;52.218;5.172;2023-05-10T01:21:54;80.93;;;39.43;;
65172;SDS011;69059;52.218;5.172;2023-05-10T01:24:42;80.97;;;40.90;;
65172;SDS011;69059;52.218;5.172;2023-05-10T01:27:46;79.47;;;39.87;;
65172;SDS011;69059;52.218;5.172;2023-05-10T01:30:32;82.37;;;41.53;;
65172;SDS011;69059;52.218;5.172;2023-05-10T01:33:12;81.90;;;41.43;;
65172;SDS011;69059;52.218;5.172;2023-05-10T01:35:47;78.93;;;39.80;;
65172;SDS011;69059;52.218;5.172;2023-05-10T01:38:24;96.43;;;43.43;;
65172;SDS011;69059;52.218;5.172;2023-05-10T01:41:01;77.63;;;39.67;;
65172;SDS011;69059;52.218;5.172;2023-05-10T01:43:41;74.17;;;39.17;;
65172;SDS011;69059;52.218;5.172;2023-05-10T01:46:16;67.73;;;36.50;;
65172;SDS011;69059;52.218;5.172;2023-05-10T01:48:54;72.37;;;37.03;;
65172;SDS011;69059;52.218;5.172;2023-05-10T01:51:25;89.37;;;41.23;;
65172;SDS011;69059;52.218;5.172;2023-05-10T01:53:57;108.17;;;43.40;;
65172;SDS011;69059;52.218;5.172;2023-05-10T01:56:29;78.83;;;39.43;;
65172;SDS011;69059;52.218;5.172;2023-05-10T01:58:59;108.30;;;43.93;;
65172;SDS011;69059;52.218;5.172;2023-05-10T02:01:28;108.30;;;43.10;;
65172;SDS011;69059;52.218;5.172;2023-05-10T02:03:58;119.32;;;45.13;;
65172;SDS011;69059;52.218;5.172;2023-05-10T02:06:27;90.90;;;40.73;;
65172;SDS011;69059;52.218;5.172;2023-05-10T02:08:54;118.17;;;44.87;;
65172;SDS011;69059;52.218;5.172;2023-05-10T02:11:23;105.33;;;43.90;;
65172;SDS011;69059;52.218;5.172;2023-05-10T02:13:53;103.37;;;43.27;;
65172;SDS011;69059;52.218;5.172;2023-05-10T02:16:23;111.57;;;44.10;;
65172;SDS011;69059;52.218;5.172;2023-05-10T02:18:53;105.97;;;43.40;;
65172;SDS011;69059;52.218;5.172;2023-05-10T02:21:25;114.27;;;45.10;;
65172;SDS011;69059;52.218;5.172;2023-05-10T02:23:56;86.57;;;41.07;;
65172;SDS011;69059;52.218;5.172;2023-05-10T02:26:25;109.90;;;45.60;;
65172;SDS011;69059;52.218;5.172;2023-05-10T02:28:54;103.00;;;44.93;;
65172;SDS011;69059;52.218;5.172;2023-05-10T02:31:24;108.60;;;44.87;;
65172;SDS011;69059;52.218;5.172;2023-05-10T02:33:53;106.40;;;43.97;;
65172;SDS011;69059;52.218;5.172;2023-05-10T02:36:22;112.50;;;45.87;;
65172;SDS011;69059;52.218;5.172;2023-05-10T02:38:51;110.32;;;45.45;;
65172;SDS011;69059;52.218;5.172;2023-05-10T02:41:20;99.03;;;44.53;;
65172;SDS011;69059;52.218;5.172;2023-05-10T02:43:50;96.33;;;44.23;;
65172;SDS011;69059;52.218;5.172;2023-05-10T02:46:22;89.47;;;40.77;;
65172;SDS011;69059;52.218;5.172;2023-05-10T02:48:51;101.47;;;42.27;;
65172;SDS011;69059;52.218;5.172;2023-05-10T02:51:18;101.30;;;44.70;;
65172;SDS011;69059;52.218;5.172;2023-05-10T02:53:52;101.37;;;45.33;;
65172;SDS011;69059;52.218;5.172;2023-05-10T02:56:23;111.53;;;47.73;;
65172;SDS011;69059;52.218;5.172;2023-05-10T02:58:55;105.27;;;46.23;;
65172;SDS011;69059;52.218;5.172;2023-05-10T03:01:23;117.43;;;46.53;;
65172;SDS011;69059;52.218;5.172;2023-05-10T03:03:51;122.20;;;48.17;;
65172;SDS011;69059;52.218;5.172;2023-05-10T03:06:19;160.15;;;51.40;;
65172;SDS011;69059;52.218;5.172;2023-05-10T03:08:47;143.60;;;50.03;;
65172;SDS011;69059;52.218;5.172;2023-05-10T03:11:20;173.10;;;50.85;;
65172;SDS011;69059;52.218;5.172;2023-05-10T03:13:56;124.77;;;42.30;;
65172;SDS011;69059;52.218;5.172;2023-05-10T03:16:40;156.23;;;45.37;;
65172;SDS011;69059;52.218;5.172;2023-05-10T03:19:16;143.93;;;44.07;;
65172;SDS011;69059;52.218;5.172;2023-05-10T03:21:47;177.13;;;46.77;;
65172;SDS011;69059;52.218;5.172;2023-05-10T03:24:20;188.33;;;47.27;;
65172;SDS011;69059;52.218;5.172;2023-05-10T03:26:50;126.00;;;42.07;;
65172;SDS011;69059;52.218;5.172;2023-05-10T03:29:22;174.30;;;45.30;;
65172;SDS011;69059;52.218;5.172;2023-05-10T03:31:52;131.73;;;42.10;;
65172;SDS011;69059;52.218;5.172;2023-05-10T03:34:23;129.48;;;40.60;;
65172;SDS011;69059;52.218;5.172;2023-05-10T03:36:51;162.37;;;43.73;;
65172;SDS011;69059;52.218;5.172;2023-05-10T03:39:18;118.90;;;38.50;;
65172;SDS011;69059;52.218;5.172;2023-05-10T03:41:47;142.20;;;40.97;;
65172;SDS011;69059;52.218;5.172;2023-05-10T03:44:16;141.43;;;39.97;;
65172;SDS011;69059;52.218;5.172;2023-05-10T03:46:44;127.67;;;37.90;;
65172;SDS011;69059;52.218;5.172;2023-05-10T03:49:12;142.88;;;39.13;;
65172;SDS011;69059;52.218;5.172;2023-05-10T03:51:40;156.55;;;40.38;;
65172;SDS011;69059;52.218;5.172;2023-05-10T03:54:08;131.93;;;37.53;;
65172;SDS011;69059;52.218;5.172;2023-05-10T03:56:36;125.75;;;38.38;;
65172;SDS011;69059;52.218;5.172;2023-05-10T03:59:03;130.63;;;39.87;;
65172;SDS011;69059;52.218;5.172;2023-05-10T04:01:35;88.13;;;34.93;;
65172;SDS011;69059;52.218;5.172;2023-05-10T04:04:02;100.70;;;36.17;;
65172;SDS011;69059;52.218;5.172;2023-05-10T04:06:30;89.95;;;35.90;;
65172;SDS011;69059;52.218;5.172;2023-05-10T04:08:59;126.35;;;40.97;;
65172;SDS011;69059;52.218;5.172;2023-05-10T04:11:30;92.93;;;37.93;;
65172;SDS011;69059;52.218;5.172;2023-05-10T04:13:58;116.15;;;41.15;;
65172;SDS011;69059;52.218;5.172;2023-05-10T04:16:25;114.80;;;38.43;;
65172;SDS011;69059;52.218;5.172;2023-05-10T04:18:54;115.73;;;39.50;;
65172;SDS011;69059;52.218;5.172;2023-05-10T04:21:22;104.20;;;38.97;;
65172;SDS011;69059;52.218;5.172;2023-05-10T04:23:50;126.43;;;40.77;;
65172;SDS011;69059;52.218;5.172;2023-05-10T04:26:18;106.67;;;39.27;;
65172;SDS011;69059;52.218;5.172;2023-05-10T04:28:46;112.20;;;37.75;;
65172;SDS011;69059;52.218;5.172;2023-05-10T04:31:14;101.03;;;37.57;;
65172;SDS011;69059;52.218;5.172;2023-05-10T04:33:41;126.30;;;38.60;;
65172;SDS011;69059;52.218;5.172;2023-05-10T04:36:11;122.30;;;38.38;;
65172;SDS011;69059;52.218;5.172;2023-05-10T04:38:39;102.93;;;35.00;;
65172;SDS011;69059;52.218;5.172;2023-05-10T04:41:07;83.43;;;33.77;;
65172;SDS011;69059;52.218;5.172;2023-05-10T04:43:36;113.10;;;34.87;;
65172;SDS011;69059;52.218;5.172;2023-05-10T04:46:04;116.30;;;35.27;;
65172;SDS011;69059;52.218;5.172;2023-05-10T04:48:33;106.93;;;33.77;;
65172;SDS011;69059;52.218;5.172;2023-05-10T04:51:01;113.97;;;35.30;;
65172;SDS011;69059;52.218;5.172;2023-05-10T04:53:31;97.03;;;35.43;;
65172;SDS011;69059;52.218;5.172;2023-05-10T04:55:59;99.93;;;36.43;;
65172;SDS011;69059;52.218;5.172;2023-05-10T04:58:27;95.88;;;35.13;;
65172;SDS011;69059;52.218;5.172;2023-05-10T05:00:55;129.60;;;39.90;;
65172;SDS011;69059;52.218;5.172;2023-05-10T05:03:23;114.88;;;40.63;;
65172;SDS011;69059;52.218;5.172;2023-05-10T05:05:51;124.75;;;42.00;;
65172;SDS011;69059;52.218;5.172;2023-05-10T05:08:19;95.93;;;40.07;;
65172;SDS011;69059;52.218;5.172;2023-05-10T05:10:49;121.03;;;41.90;;
65172;SDS011;69059;52.218;5.172;2023-05-10T05:13:16;81.23;;;37.43;;
65172;SDS011;69059;52.218;5.172;2023-05-10T05:15:44;93.75;;;37.35;;
65172;SDS011;69059;52.218;5.172;2023-05-10T05:18:12;58.25;;;29.42;;
65172;SDS011;69059;52.218;5.172;2023-05-10T05:20:40;54.25;;;27.13;;
65172;SDS011;69059;52.218;5.172;2023-05-10T05:23:08;51.27;;;25.27;;
65172;SDS011;69059;52.218;5.172;2023-05-10T05:25:35;47.47;;;23.80;;
65172;SDS011;69059;52.218;5.172;2023-05-10T05:28:05;47.42;;;23.30;;
65172;SDS011;69059;52.218;5.172;2023-05-10T05:30:32;47.37;;;22.03;;
65172;SDS011;69059;52.218;5.172;2023-05-10T05:33:00;56.53;;;23.87;;
65172;SDS011;69059;52.218;5.172;2023-05-10T05:35:28;44.15;;;21.85;;
65172;SDS011;69059;52.218;5.172;2023-05-10T05:37:56;34.92;;;20.52;;
65172;SDS011;69059;52.218;5.172;2023-05-10T05:40:24;38.30;;;21.43;;
65172;SDS011;69059;52.218;5.172;2023-05-10T05:42:51;38.42;;;21.05;;
65172;SDS011;69059;52.218;5.172;2023-05-10T05:45:21;33.50;;;19.42;;
65172;SDS011;69059;52.218;5.172;2023-05-10T05:47:48;33.43;;;17.63;;
65172;SDS011;69059;52.218;5.172;2023-05-10T05:50:16;35.65;;;19.75;;
65172;SDS011;69059;52.218;5.172;2023-05-10T05:52:44;30.60;;;18.08;;
65172;SDS011;69059;52.218;5.172;2023-05-10T05:55:12;29.17;;;17.10;;
65172;SDS011;69059;52.218;5.172;2023-05-10T05:57:40;30.40;;;17.70;;
65172;SDS011;69059;52.218;5.172;2023-05-10T06:00:08;29.73;;;16.13;;
65172;SDS011;69059;52.218;5.172;2023-05-10T06:02:38;29.27;;;16.67;;
65172;SDS011;69059;52.218;5.172;2023-05-10T06:05:07;27.93;;;15.83;;
65172;SDS011;69059;52.218;5.172;2023-05-10T06:10:03;25.27;;;15.27;;
65172;SDS011;69059;52.218;5.172;2023-05-10T06:12:32;34.03;;;17.63;;
65172;SDS011;69059;52.218;5.172;2023-05-10T06:14:59;30.57;;;17.27;;
65172;SDS011;69059;52.218;5.172;2023-05-10T06:17:27;29.97;;;17.73;;
65172;SDS011;69059;52.218;5.172;2023-05-10T06:19:56;43.87;;;21.90;;
65172;SDS011;69059;52.218;5.172;2023-05-10T06:22:24;39.37;;;19.73;;
65172;SDS011;69059;52.218;5.172;2023-05-10T06:24:51;33.87;;;18.10;;
65172;SDS011;69059;52.218;5.172;2023-05-10T06:27:19;41.05;;;19.90;;
65172;SDS011;69059;52.218;5.172;2023-05-10T06:29:47;36.70;;;18.02;;
65172;SDS011;69059;52.218;5.172;2023-05-10T06:32:21;41.53;;;19.10;;
65172;SDS011;69059;52.218;5.172;2023-05-10T06:34:49;28.45;;;16.65;;
65172;SDS011;69059;52.218;5.172;2023-05-10T06:37:18;40.40;;;19.93;;
65172;SDS011;69059;52.218;5.172;2023-05-10T06:39:46;39.53;;;20.33;;
65172;SDS011;69059;52.218;5.172;2023-05-10T06:42:14;42.25;;;20.25;;
65172;SDS011;69059;52.218;5.172;2023-05-10T06:44:42;38.83;;;19.97;;
65172;SDS011;69059;52.218;5.172;2023-05-10T06:47:10;35.37;;;18.57;;
65172;SDS011;69059;52.218;5.172;2023-05-10T06:49:37;35.22;;;18.58;;
65172;SDS011;69059;52.218;5.172;2023-05-10T06:52:06;33.60;;;18.40;;
65172;SDS011;69059;52.218;5.172;2023-05-10T06:54:35;33.77;;;18.40;;
65172;SDS011;69059;52.218;5.172;2023-05-10T06:57:03;35.33;;;18.37;;
65172;SDS011;69059;52.218;5.172;2023-05-10T06:59:41;29.67;;;16.50;;
65172;SDS011;69059;52.218;5.172;2023-05-10T07:02:09;30.70;;;16.73;;
65172;SDS011;69059;52.218;5.172;2023-05-10T07:04:37;33.63;;;17.23;;
65172;SDS011;69059;52.218;5.172;2023-05-10T07:07:05;32.97;;;18.40;;
65172;SDS011;69059;52.218;5.172;2023-05-10T07:09:34;26.00;;;15.70;;
65172;SDS011;69059;52.218;5.172;2023-05-10T07:12:02;25.97;;;16.43;;
65172;SDS011;69059;52.218;5.172;2023-05-10T07:14:32;30.13;;;16.40;;
65172;SDS011;69059;52.218;5.172;2023-05-10T07:16:59;32.10;;;18.67;;
65172;SDS011;69059;52.218;5.172;2023-05-10T07:19:27;27.70;;;16.08;;
65172;SDS011;69059;52.218;5.172;2023-05-10T07:21:56;28.73;;;18.13;;
65172;SDS011;69059;52.218;5.172;2023-05-10T07:24:23;29.37;;;17.57;;
65172;SDS011;69059;52.218;5.172;2023-05-10T07:26:53;31.00;;;18.30;;
65172;SDS011;69059;52.218;5.172;2023-05-10T07:29:20;30.73;;;18.07;;
65172;SDS011;69059;52.218;5.172;2023-05-10T07:31:48;29.42;;;17.25;;
65172;SDS011;69059;52.218;5.172;2023-05-10T07:34:16;28.33;;;17.40;;
65172;SDS011;69059;52.218;5.172;2023-05-10T07:36:44;28.10;;;16.75;;
65172;SDS011;69059;52.218;5.172;2023-05-10T07:39:12;23.83;;;16.48;;
65172;SDS011;69059;52.218;5.172;2023-05-10T07:41:53;24.57;;;16.57;;
65172;SDS011;69059;52.218;5.172;2023-05-10T07:44:21;26.27;;;16.43;;
65172;SDS011;69059;52.218;5.172;2023-05-10T07:46:49;27.92;;;16.80;;
65172;SDS011;69059;52.218;5.172;2023-05-10T07:49:17;25.75;;;16.80;;
65172;SDS011;69059;52.218;5.172;2023-05-10T07:51:44;26.98;;;16.23;;
65172;SDS011;69059;52.218;5.172;2023-05-10T07:54:13;24.90;;;16.37;;
65172;SDS011;69059;52.218;5.172;2023-05-10T07:56:41;26.03;;;16.03;;
65172;SDS011;69059;52.218;5.172;2023-05-10T07:59:14;26.67;;;16.00;;
65172;SDS011;69059;52.218;5.172;2023-05-10T08:01:43;27.23;;;16.87;;
65172;SDS011;69059;52.218;5.172;2023-05-10T08:06:39;22.38;;;15.70;;
65172;SDS011;69059;52.218;5.172;2023-05-10T08:09:07;26.92;;;16.27;;
65172;SDS011;69059;52.218;5.172;2023-05-10T08:11:35;25.30;;;16.00;;
65172;SDS011;69059;52.218;5.172;2023-05-10T08:14:03;26.73;;;16.88;;
65172;SDS011;69059;52.218;5.172;2023-05-10T08:16:32;22.45;;;15.55;;
65172;SDS011;69059;52.218;5.172;2023-05-10T08:19:00;24.02;;;15.20;;
65172;SDS011;69059;52.218;5.172;2023-05-10T08:21:28;25.50;;;14.90;;
65172;SDS011;69059;52.218;5.172;2023-05-10T08:23:57;19.00;;;13.50;;
65172;SDS011;69059;52.218;5.172;2023-05-10T08:26:25;19.60;;;13.05;;
65172;SDS011;69059;52.218;5.172;2023-05-10T08:28:53;19.52;;;12.98;;
65172;SDS011;69059;52.218;5.172;2023-05-10T08:31:20;16.63;;;13.43;;
65172;SDS011;69059;52.218;5.172;2023-05-10T08:33:50;23.83;;;13.40;;
65172;SDS011;69059;52.218;5.172;2023-05-10T08:36:18;18.05;;;12.95;;
65172;SDS011;69059;52.218;5.172;2023-05-10T08:38:49;16.02;;;12.02;;
65172;SDS011;69059;52.218;5.172;2023-05-10T08:41:18;16.80;;;11.50;;
65172;SDS011;69059;52.218;5.172;2023-05-10T08:43:48;14.20;;;10.07;;
65172;SDS011;69059;52.218;5.172;2023-05-10T08:46:17;17.88;;;11.57;;
65172;SDS011;69059;52.218;5.172;2023-05-10T08:48:47;14.90;;;11.18;;
65172;SDS011;69059;52.218;5.172;2023-05-10T08:51:18;13.70;;;10.30;;
65172;SDS011;69059;52.218;5.172;2023-05-10T08:53:47;15.27;;;9.10;;
65172;SDS011;69059;52.218;5.172;2023-05-10T08:56:15;14.32;;;9.35;;
65172;SDS011;69059;52.218;5.172;2023-05-10T08:58:44;14.35;;;9.90;;
65172;SDS011;69059;52.218;5.172;2023-05-10T09:01:12;12.68;;;10.38;;
65172;SDS011;69059;52.218;5.172;2023-05-10T09:03:42;11.50;;;9.57;;
65172;SDS011;69059;52.218;5.172;2023-05-10T09:08:41;14.48;;;10.57;;
65172;SDS011;69059;52.218;5.172;2023-05-10T09:11:11;13.32;;;10.38;;
65172;SDS011;69059;52.218;5.172;2023-05-10T09:13:39;14.48;;;10.63;;
65172;SDS011;69059;52.218;5.172;2023-05-10T09:16:07;15.43;;;10.68;;
65172;SDS011;69059;52.218;5.172;2023-05-10T09:18:47;14.50;;;10.45;;
65172;SDS011;69059;52.218;5.172;2023-05-10T09:21:16;11.25;;;9.63;;
65172;SDS011;69059;52.218;5.172;2023-05-10T09:23:45;13.32;;;10.60;;
65172;SDS011;69059;52.218;5.172;2023-05-10T09:26:14;16.88;;;10.82;;
65172;SDS011;69059;52.218;5.172;2023-05-10T09:28:52;14.52;;;10.55;;
65172;SDS011;69059;52.218;5.172;2023-05-10T09:31:20;13.73;;;10.18;;
65172;SDS011;69059;52.218;5.172;2023-05-10T09:33:48;14.65;;;9.52;;
65172;SDS011;69059;52.218;5.172;2023-05-10T09:38:46;11.10;;;8.50;;
65172;SDS011;69059;52.218;5.172;2023-05-10T09:41:15;9.18;;;6.65;;
65172;SDS011;69059;52.218;5.172;2023-05-10T09:43:44;10.65;;;6.45;;
65172;SDS011;69059;52.218;5.172;2023-05-10T09:46:12;9.73;;;7.25;;
65172;SDS011;69059;52.218;5.172;2023-05-10T09:48:41;10.38;;;7.10;;
65172;SDS011;69059;52.218;5.172;2023-05-10T09:51:16;12.05;;;6.63;;
65172;SDS011;69059;52.218;5.172;2023-05-10T09:53:47;12.68;;;7.63;;
65172;SDS011;69059;52.218;5.172;2023-05-10T09:59:04;9.23;;;6.68;;
65172;SDS011;69059;52.218;5.172;2023-05-10T10:04:02;11.25;;;6.95;;
65172;SDS011;69059;52.218;5.172;2023-05-10T10:06:35;12.60;;;6.65;;
65172;SDS011;69059;52.218;5.172;2023-05-10T10:09:06;9.43;;;6.68;;
65172;SDS011;69059;52.218;5.172;2023-05-10T10:11:34;8.32;;;6.90;;
65172;SDS011;69059;52.218;5.172;2023-05-10T10:14:03;9.27;;;5.38;;
65172;SDS011;69059;52.218;5.172;2023-05-10T10:16:31;9.70;;;5.80;;
65172;SDS011;69059;52.218;5.172;2023-05-10T10:21:28;9.00;;;5.72;;
65172;SDS011;69059;52.218;5.172;2023-05-10T10:23:55;6.53;;;5.53;;
65172;SDS011;69059;52.218;5.172;2023-05-10T10:26:24;6.82;;;5.25;;
65172;SDS011;69059;52.218;5.172;2023-05-10T10:28:56;6.63;;;4.75;;
65172;SDS011;69059;52.218;5.172;2023-05-10T10:31:32;6.78;;;4.00;;
65172;SDS011;69059;52.218;5.172;2023-05-10T10:34:06;5.75;;;4.18;;
65172;SDS011;69059;52.218;5.172;2023-05-10T10:36:40;6.43;;;4.38;;
65172;SDS011;69059;52.218;5.172;2023-05-10T10:39:10;6.18;;;4.05;;
65172;SDS011;69059;52.218;5.172;2023-05-10T10:41:41;5.93;;;4.10;;
65172;SDS011;69059;52.218;5.172;2023-05-10T10:44:32;6.95;;;4.25;;
65172;SDS011;69059;52.218;5.172;2023-05-10T10:47:22;6.32;;;4.50;;
65172;SDS011;69059;52.218;5.172;2023-05-10T10:50:02;7.20;;;4.10;;
65172;SDS011;69059;52.218;5.172;2023-05-10T10:52:31;7.95;;;4.13;;
65172;SDS011;69059;52.218;5.172;2023-05-10T10:55:01;4.80;;;3.88;;
65172;SDS011;69059;52.218;5.172;2023-05-10T10:57:33;10.43;;;4.45;;
65172;SDS011;69059;52.218;5.172;2023-05-10T11:02:51;6.43;;;3.70;;
65172;SDS011;69059;52.218;5.172;2023-05-10T11:08:08;6.10;;;3.85;;
65172;SDS011;69059;52.218;5.172;2023-05-10T11:10:38;6.30;;;3.78;;
65172;SDS011;69059;52.218;5.172;2023-05-10T11:13:09;5.35;;;3.75;;
65172;SDS011;69059;52.218;5.172;2023-05-10T11:15:38;8.50;;;4.15;;
65172;SDS011;69059;52.218;5.172;2023-05-10T11:20:55;8.43;;;4.35;;
65172;SDS011;69059;52.218;5.172;2023-05-10T11:23:29;6.90;;;4.75;;
65172;SDS011;69059;52.218;5.172;2023-05-10T11:25:58;6.90;;;4.57;;
65172;SDS011;69059;52.218;5.172;2023-05-10T11:28:28;6.78;;;4.43;;
65172;SDS011;69059;52.218;5.172;2023-05-10T11:30:56;5.25;;;3.75;;
65172;SDS011;69059;52.218;5.172;2023-05-10T11:33:24;3.92;;;3.30;;
65172;SDS011;69059;52.218;5.172;2023-05-10T11:35:52;6.88;;;3.45;;
65172;SDS011;69059;52.218;5.172;2023-05-10T11:38:20;6.50;;;3.30;;
65172;SDS011;69059;52.218;5.172;2023-05-10T11:40:49;5.30;;;3.20;;
65172;SDS011;69059;52.218;5.172;2023-05-10T11:43:20;6.30;;;3.42;;
65172;SDS011;69059;52.218;5.172;2023-05-10T11:45:55;7.70;;;3.33;;
65172;SDS011;69059;52.218;5.172;2023-05-10T11:48:23;5.25;;;3.20;;
65172;SDS011;69059;52.218;5.172;2023-05-10T11:50:51;4.15;;;2.80;;
65172;SDS011;69059;52.218;5.172;2023-05-10T11:53:23;4.47;;;3.17;;
65172;SDS011;69059;52.218;5.172;2023-05-10T11:55:53;5.28;;;3.47;;
65172;SDS011;69059;52.218;5.172;2023-05-10T11:58:21;5.17;;;3.40;;
65172;SDS011;69059;52.218;5.172;2023-05-10T12:03:18;7.97;;;4.03;;
65172;SDS011;69059;52.218;5.172;2023-05-10T12:05:46;4.85;;;4.03;;
65172;SDS011;69059;52.218;5.172;2023-05-10T12:08:15;6.43;;;4.18;;
65172;SDS011;69059;52.218;5.172;2023-05-10T12:10:47;5.65;;;3.65;;
65172;SDS011;69059;52.218;5.172;2023-05-10T12:13:15;6.93;;;3.70;;
65172;SDS011;69059;52.218;5.172;2023-05-10T12:15:43;6.65;;;3.80;;
65172;SDS011;69059;52.218;5.172;2023-05-10T12:18:11;7.70;;;4.05;;
65172;SDS011;69059;52.218;5.172;2023-05-10T12:20:40;4.35;;;3.42;;
65172;SDS011;69059;52.218;5.172;2023-05-10T12:23:09;4.03;;;3.63;;
65172;SDS011;69059;52.218;5.172;2023-05-10T12:25:37;4.00;;;3.60;;
65172;SDS011;69059;52.218;5.172;2023-05-10T12:28:07;6.28;;;3.95;;
65172;SDS011;69059;52.218;5.172;2023-05-10T12:30:36;5.47;;;3.50;;
65172;SDS011;69059;52.218;5.172;2023-05-10T12:33:07;5.15;;;3.60;;
65172;SDS011;69059;52.218;5.172;2023-05-10T12:35:47;6.07;;;4.10;;
65172;SDS011;69059;52.218;5.172;2023-05-10T12:38:26;9.05;;;4.53;;
65172;SDS011;69059;52.218;5.172;2023-05-10T12:40:57;4.97;;;4.00;;
65172;SDS011;69059;52.218;5.172;2023-05-10T12:43:25;6.53;;;4.50;;
65172;SDS011;69059;52.218;5.172;2023-05-10T12:45:53;7.45;;;4.45;;
65172;SDS011;69059;52.218;5.172;2023-05-10T12:48:21;6.63;;;5.15;;
65172;SDS011;69059;52.218;5.172;2023-05-10T12:50:50;6.50;;;4.90;;
65172;SDS011;69059;52.218;5.172;2023-05-10T12:53:18;7.35;;;5.32;;
65172;SDS011;69059;52.218;5.172;2023-05-10T12:55:46;8.10;;;6.70;;
65172;SDS011;69059;52.218;5.172;2023-05-10T12:58:14;8.70;;;6.80;;
65172;SDS011;69059;52.218;5.172;2023-05-10T13:00:59;10.70;;;8.45;;
65172;SDS011;69059;52.218;5.172;2023-05-10T13:03:27;11.65;;;8.13;;
65172;SDS011;69059;52.218;5.172;2023-05-10T13:05:56;13.80;;;9.50;;
65172;SDS011;69059;52.218;5.172;2023-05-10T13:08:24;14.45;;;10.05;;
65172;SDS011;69059;52.218;5.172;2023-05-10T13:10:52;20.33;;;12.52;;
65172;SDS011;69059;52.218;5.172;2023-05-10T13:13:20;19.63;;;11.60;;
65172;SDS011;69059;52.218;5.172;2023-05-10T13:15:47;20.95;;;13.82;;
65172;SDS011;69059;52.218;5.172;2023-05-10T13:18:15;17.13;;;12.13;;
65172;SDS011;69059;52.218;5.172;2023-05-10T13:20:43;17.63;;;11.02;;
65172;SDS011;69059;52.218;5.172;2023-05-10T13:23:12;20.85;;;13.07;;
65172;SDS011;69059;52.218;5.172;2023-05-10T13:25:40;20.23;;;12.30;;
65172;SDS011;69059;52.218;5.172;2023-05-10T13:28:08;18.80;;;11.87;;
65172;SDS011;69059;52.218;5.172;2023-05-10T13:30:36;20.42;;;11.68;;
65172;SDS011;69059;52.218;5.172;2023-05-10T13:33:03;20.23;;;12.30;;
65172;SDS011;69059;52.218;5.172;2023-05-10T13:35:31;21.13;;;11.40;;
65172;SDS011;69059;52.218;5.172;2023-05-10T13:37:59;20.38;;;10.40;;
65172;SDS011;69059;52.218;5.172;2023-05-10T13:40:28;19.33;;;11.20;;
65172;SDS011;69059;52.218;5.172;2023-05-10T13:42:56;17.45;;;9.85;;
65172;SDS011;69059;52.218;5.172;2023-05-10T13:45:23;14.27;;;9.20;;
65172;SDS011;69059;52.218;5.172;2023-05-10T13:47:51;12.65;;;8.60;;
65172;SDS011;69059;52.218;5.172;2023-05-10T13:50:19;13.05;;;8.52;;
65172;SDS011;69059;52.218;5.172;2023-05-10T13:52:47;13.50;;;8.10;;
65172;SDS011;69059;52.218;5.172;2023-05-10T13:55:15;13.02;;;8.52;;
65172;SDS011;69059;52.218;5.172;2023-05-10T13:57:45;13.55;;;8.27;;
65172;SDS011;69059;52.218;5.172;2023-05-10T14:00:12;14.70;;;8.40;;
65172;SDS011;69059;52.218;5.172;2023-05-10T14:02:41;12.52;;;8.30;;
65172;SDS011;69059;52.218;5.172;2023-05-10T14:05:09;12.60;;;8.27;;
65172;SDS011;69059;52.218;5.172;2023-05-10T14:07:38;11.35;;;7.35;;
65172;SDS011;69059;52.218;5.172;2023-05-10T14:10:06;12.93;;;7.90;;
65172;SDS011;69059;52.218;5.172;2023-05-10T14:12:34;12.65;;;7.45;;
65172;SDS011;69059;52.218;5.172;2023-05-10T14:15:03;15.40;;;8.40;;
65172;SDS011;69059;52.218;5.172;2023-05-10T14:17:32;11.75;;;7.25;;
65172;SDS011;69059;52.218;5.172;2023-05-10T14:20:00;12.95;;;7.95;;
65172;SDS011;69059;52.218;5.172;2023-05-10T14:22:29;15.18;;;8.55;;
65172;SDS011;69059;52.218;5.172;2023-05-10T14:24:57;13.70;;;7.85;;
65172;SDS011;69059;52.218;5.172;2023-05-10T14:27:25;11.38;;;7.95;;
65172;SDS011;69059;52.218;5.172;2023-05-10T14:30:15;17.52;;;10.52;;
65172;SDS011;69059;52.218;5.172;2023-05-10T14:32:43;15.20;;;8.85;;
65172;SDS011;69059;52.218;5.172;2023-05-10T14:35:10;48.45;;;12.35;;
65172;SDS011;69059;52.218;5.172;2023-05-10T14:37:42;128.23;;;23.45;;
65172;SDS011;69059;52.218;5.172;2023-05-10T14:40:10;16.35;;;7.80;;
65172;SDS011;69059;52.218;5.172;2023-05-10T14:42:38;14.15;;;7.85;;
65172;SDS011;69059;52.218;5.172;2023-05-10T14:45:06;21.67;;;8.50;;
65172;SDS011;69059;52.218;5.172;2023-05-10T14:47:36;14.52;;;7.40;;
65172;SDS011;69059;52.218;5.172;2023-05-10T14:50:04;10.75;;;6.88;;
65172;SDS011;69059;52.218;5.172;2023-05-10T14:52:33;13.25;;;7.20;;
65172;SDS011;69059;52.218;5.172;2023-05-10T14:55:01;13.68;;;8.10;;
65172;SDS011;69059;52.218;5.172;2023-05-10T14:57:29;13.05;;;8.02;;
65172;SDS011;69059;52.218;5.172;2023-05-10T14:59:57;12.00;;;7.43;;
65172;SDS011;69059;52.218;5.172;2023-05-10T15:02:25;13.18;;;7.20;;
65172;SDS011;69059;52.218;5.172;2023-05-10T15:04:55;12.48;;;7.97;;
65172;SDS011;69059;52.218;5.172;2023-05-10T15:07:24;15.85;;;8.38;;
65172;SDS011;69059;52.218;5.172;2023-05-10T15:09:52;11.48;;;7.57;;